Time;durP1;ratioP1;P1;durP2;ratioP2;P2;SDS_P1;SDS_P2;PMS_P1;PMS_P2;Temp;Humidity;BMP_temperature;BMP_pressure;BME280_temperature;BME280_humidity;BME280_pressure;Samples;Min_cycle;Max_cycle;Signal;HPM_P1;HPM_P2
2023/12/11 00:00:30;;;;;;;;;70.00;51.50;;;;;0.61;100.00;99481.06;6308087;20;2493126;-45
2023/12/11 00:03:00;;;;;;;;;76.33;54.67;;;;;0.74;100.00;99473.69;6281791;20;2885721;-45
2023/12/11 00:05:29;;;;;;;;;74.00;52.75;;;;;0.43;100.00;99471.78;6312500;20;4378573;-48
2023/12/11 00:07:58;;;;;;;;;70.50;55.50;;;;;0.93;100.00;99476.72;6314343;20;2865386;-47
2023/12/11 00:10:28;;;;;;;;;79.67;57.00;;;;;0.67;100.00;99468.59;6279438;20;2896121;-45
2023/12/11 00:12:58;;;;;;;;;80.00;57.33;;;;;0.83;100.00;99464.66;6313808;20;3642968;-44
2023/12/11 00:15:27;;;;;;;;;71.33;57.00;;;;;0.85;100.00;99473.41;6311473;20;2877464;-48
2023/12/11 00:17:57;;;;;;;;;64.33;46.00;;;;;0.56;100.00;99453.88;6311701;20;2882640;-46
2023/12/11 00:20:27;;;;;;;;;77.67;53.67;;;;;0.50;100.00;99451.41;6310077;20;2881537;-47
2023/12/11 00:22:57;;;;;;;;;73.33;49.33;;;;;0.66;100.00;99446.59;6313146;20;3641966;-45
2023/12/11 00:25:32;;;;;;;;;82.33;58.33;;;;;0.58;100.00;99449.44;6309168;20;3648180;-46
2023/12/11 00:28:01;;;;;;;;;71.25;52.00;;;;;0.69;100.00;99450.94;6309152;20;3630587;-47
2023/12/11 00:30:31;;;;;;;;;76.67;55.67;;;;;0.75;100.00;99442.84;6310846;20;3647277;-48
2023/12/11 00:33:00;;;;;;;;;68.50;54.00;;;;;0.63;100.00;99441.38;6309884;20;2875471;-46
2023/12/11 00:35:30;;;;;;;;;80.00;53.33;;;;;0.64;100.00;99445.78;6281536;20;2891513;-45
2023/12/11 00:37:59;;;;;;;;;67.50;50.50;;;;;0.64;100.00;99453.69;6312613;20;2873182;-49
2023/12/11 00:40:28;;;;;;;;;80.67;57.33;;;;;0.56;100.00;99445.97;6278881;20;3651262;-48
2023/12/11 00:42:57;;;;;;;;;76.00;56.50;;;;;1.16;100.00;99431.19;6311492;20;2883623;-46
2023/12/11 00:45:27;;;;;;;;;72.67;54.00;;;;;1.04;100.00;99427.09;6281155;20;2879664;-48
2023/12/11 00:47:57;;;;;;;;;78.33;54.33;;;;;0.97;100.00;99416.72;6312769;20;2888813;-46
2023/12/11 00:50:26;;;;;;;;;72.50;57.00;;;;;0.51;100.00;99432.00;6310480;20;2871188;-50
2023/12/11 00:52:56;;;;;;;;;76.33;55.00;;;;;0.55;100.00;99438.91;6279883;20;2883726;-48
2023/12/11 00:55:24;;;;;;;;;79.00;58.50;;;;;0.75;100.00;99441.06;6308919;20;2500271;-45
2023/12/11 00:57:54;;;;;;;;;75.67;56.67;;;;;0.59;100.00;99439.72;6267237;20;2880591;-50
2023/12/11 01:00:23;;;;;;;;;78.33;56.33;;;;;0.99;100.00;99439.56;6308355;20;3648190;-49
2023/12/11 01:02:53;;;;;;;;;76.00;58.67;;;;;0.53;100.00;99445.19;6310456;20;2878445;-48
2023/12/11 01:05:22;;;;;;;;;71.50;53.00;;;;;0.78;100.00;99435.69;6310262;20;2870641;-47
2023/12/11 01:07:52;;;;;;;;;73.67;53.33;;;;;0.79;100.00;99441.84;6278063;20;3643002;-48
2023/12/11 01:10:22;;;;;;;;;77.67;56.00;;;;;0.75;100.00;99434.91;6310412;20;2884795;-50
2023/12/11 01:12:51;;;;;;;;;70.67;54.00;;;;;0.88;100.00;99436.34;6312063;20;2876376;-51
2023/12/11 01:15:21;;;;;;;;;73.00;49.67;;;;;0.30;100.00;99438.66;6307725;20;2877398;-50
2023/12/11 01:17:51;;;;;;;;;71.33;49.00;;;;;0.67;100.00;99426.34;6312081;20;3633430;-52
2023/12/11 01:20:21;;;;;;;;;69.67;52.33;;;;;0.85;100.00;99428.50;6308033;20;2877495;-49
2023/12/11 01:22:50;;;;;;;;;66.00;48.00;;;;;0.87;100.00;99419.63;6311152;20;2867120;-47
2023/12/11 01:25:18;;;;;;;;;59.50;43.00;;;;;1.07;100.00;99410.28;6274552;20;2500401;-49
2023/12/11 01:27:47;;;;;;;;;70.00;52.50;;;;;0.65;100.00;99403.44;6281196;20;2882540;-50
2023/12/11 01:30:16;;;;;;;;;68.50;51.00;;;;;0.60;100.00;99400.03;6275095;20;2492059;-49
2023/12/11 01:32:44;;;;;;;;;64.50;49.50;;;;;0.70;100.00;99410.41;6278579;20;2499291;-49
2023/12/11 01:35:13;;;;;;;;;68.50;52.50;;;;;0.82;100.00;99395.09;6276605;20;2872160;-50
2023/12/11 01:37:45;;;;;;;;;74.00;55.00;;;;;0.82;100.00;99410.09;6278524;20;2885726;-49
2023/12/11 01:40:15;;;;;;;;;74.00;54.00;;;;;1.18;100.00;99408.19;6275447;20;2895307;-55
2023/12/11 01:42:44;;;;;;;;;66.00;53.00;;;;;1.12;100.00;99400.44;6311633;20;2863753;-47
2023/12/11 01:45:14;;;;;;;;;72.33;53.00;;;;;0.76;100.00;99402.28;6279818;20;3641069;-51
2023/12/11 01:47:44;;;;;;;;;80.33;54.00;;;;;0.99;100.00;99396.41;6310024;20;3645047;-48
2023/12/11 01:50:15;;;;;;;;;75.67;55.00;;;;;0.98;100.00;99400.81;6309730;20;2883692;-49
2023/12/11 01:52:45;;;;;;;;;85.67;56.33;;;;;0.63;100.00;99394.72;6306975;20;3655476;-51
2023/12/11 01:55:15;;;;;;;;;69.00;50.33;;;;;0.82;100.00;99378.38;6310554;20;3633598;-52
2023/12/11 01:57:44;;;;;;;;;72.50;49.50;;;;;0.52;100.00;99383.53;6309936;20;2881567;-50
2023/12/11 02:00:14;;;;;;;;;81.33;56.00;;;;;0.48;100.00;99383.69;6274247;20;2891062;-52
2023/12/11 02:02:44;;;;;;;;;68.00;49.67;;;;;0.65;100.00;99384.94;6308553;20;2878477;-49
2023/12/11 02:05:14;;;;;;;;;74.67;50.67;;;;;0.50;100.00;99387.13;6307976;20;3638830;-51
2023/12/11 02:07:44;;;;;;;;;67.33;46.00;;;;;0.55;100.00;99370.25;6307800;20;2881631;-49
2023/12/11 02:10:14;;;;;;;;;77.00;50.33;;;;;0.41;100.00;99359.19;6305892;20;3634654;-49
2023/12/11 02:12:43;;;;;;;;;66.50;46.50;;;;;0.21;100.00;99360.56;6308784;20;2859724;-52
2023/12/11 02:15:12;;;;;;;;;76.00;46.50;;;;;0.13;100.00;99356.34;6276803;20;2880632;-50
2023/12/11 02:17:43;;;;;;;;;56.00;45.00;;;;;0.27;100.00;99342.84;6278533;20;2876437;-51
2023/12/11 02:20:13;;;;;;;;;107.00;72.00;;;;;-0.18;100.00;99350.97;6273723;20;3684673;-48
2023/12/11 02:22:41;;;;;;;;;66.50;47.50;;;;;0.22;100.00;99354.38;6278011;20;2863880;-50
2023/12/11 02:25:10;;;;;;;;;38.50;32.00;;;;;0.38;100.00;99348.69;6273635;20;2500362;-50
2023/12/11 02:27:39;;;;;;;;;54.50;43.00;;;;;0.71;100.00;99338.13;6276388;20;2875370;-52
2023/12/11 02:30:09;;;;;;;;;66.33;43.67;;;;;0.39;100.00;99338.06;6277109;20;3642021;-50
2023/12/11 02:32:39;;;;;;;;;67.00;45.33;;;;;0.49;100.00;99328.16;6309581;20;2870227;-48
2023/12/11 02:35:09;;;;;;;;;74.67;46.67;;;;;0.43;100.00;99333.59;6309311;20;3624184;-48
2023/12/11 02:37:38;;;;;;;;;53.67;42.67;;;;;0.20;100.00;99329.78;6309399;20;2861797;-50
2023/12/11 02:40:09;;;;;;;;;68.67;44.67;;;;;-0.06;100.00;99337.47;6308770;20;2891134;-47
2023/12/11 02:42:45;;;;;;;;;52.00;45.33;;;;;0.24;100.00;99334.97;6308653;20;2879617;-54
2023/12/11 02:45:15;;;;;;;;;52.00;42.00;;;;;0.32;100.00;99340.94;6309933;20;2878437;-49
2023/12/11 02:47:45;;;;;;;;;69.00;45.00;;;;;0.20;100.00;99340.31;6272750;20;2893105;-54
2023/12/11 02:50:15;;;;;;;;;59.00;42.33;;;;;0.34;100.00;99344.38;6303848;20;2884765;-50
2023/12/11 02:52:45;;;;;;;;;64.00;46.00;;;;;0.37;100.00;99349.59;6308251;20;2878696;-51
2023/12/11 02:55:15;;;;;;;;;57.00;42.33;;;;;0.30;100.00;99345.38;6312531;20;2877476;-50
2023/12/11 02:57:44;;;;;;;;;56.67;42.00;;;;;0.47;100.00;99337.88;6309711;20;3624684;-48
2023/12/11 03:00:13;;;;;;;;;52.50;42.00;;;;;0.21;100.00;99343.81;6308668;20;2850274;-50
2023/12/11 03:02:43;;;;;;;;;51.00;41.33;;;;;0.10;100.00;99336.19;6278528;20;2877480;-48
2023/12/11 03:05:13;;;;;;;;;64.33;44.00;;;;;-0.20;100.00;99336.94;6312970;20;2870296;-50
2023/12/11 03:07:42;;;;;;;;;56.00;45.00;;;;;-0.12;100.00;99324.44;6311407;20;2861824;-54
2023/12/11 03:10:11;;;;;;;;;57.50;46.00;;;;;-0.02;100.00;99331.22;6281980;20;2849400;-49
2023/12/11 03:12:40;;;;;;;;;51.50;44.00;;;;;0.03;100.00;99329.34;6284335;20;2869137;-49
2023/12/11 03:15:10;;;;;;;;;64.33;43.33;;;;;0.17;100.00;99331.63;6279502;20;2875387;-48
2023/12/11 03:17:40;;;;;;;;;66.33;43.67;;;;;-0.02;100.00;99318.03;6314651;20;3643468;-50
2023/12/11 03:20:14;;;;;;;;;67.83;47.33;;;;;0.14;100.00;99306.19;6335804;20;2869046;-52
2023/12/11 03:22:44;;;;;;;;;63.67;45.67;;;;;0.05;100.00;99311.66;6281598;20;2868052;-52
2023/12/11 03:25:12;;;;;;;;;53.50;47.00;;;;;-0.06;100.00;99314.56;6311203;20;2475283;-54
2023/12/11 03:27:41;;;;;;;;;57.00;48.00;;;;;0.07;100.00;99304.59;6283203;20;2842006;-53
2023/12/11 03:30:10;;;;;;;;;68.00;49.00;;;;;0.53;100.00;99303.41;6278295;20;2858694;-51
2023/12/11 03:32:38;;;;;;;;;65.00;48.00;;;;;0.36;100.00;99300.34;6278756;20;2500291;-49
2023/12/11 03:35:09;;;;;;;;;67.67;48.67;;;;;0.43;100.00;99301.91;6282398;20;2878479;-49
2023/12/11 03:37:38;;;;;;;;;61.67;45.33;;;;;0.54;100.00;99307.78;6312834;20;2864838;-53
2023/12/11 03:40:08;;;;;;;;;66.50;47.00;;;;;0.19;100.00;99287.59;6311032;20;2867087;-53
2023/12/11 03:42:37;;;;;;;;;58.50;45.00;;;;;-0.02;100.00;99289.88;6280382;20;2864998;-55
2023/12/11 03:45:07;;;;;;;;;54.67;42.00;;;;;0.11;100.00;99289.56;6275604;20;2866039;-53
2023/12/11 03:47:36;;;;;;;;;67.50;45.00;;;;;0.22;100.00;99296.28;6311279;20;2879477;-52
2023/12/11 03:50:06;;;;;;;;;59.50;46.50;;;;;0.17;100.00;99305.22;6277491;20;2862790;-53
2023/12/11 03:52:34;;;;;;;;;53.50;45.00;;;;;-0.02;100.00;99313.63;6277967;20;2500285;-52
2023/12/11 03:55:04;;;;;;;;;57.00;46.00;;;;;0.38;100.00;99295.88;6277295;20;2852465;-52
2023/12/11 03:57:32;;;;;;;;;72.00;52.00;;;;;0.27;100.00;99298.81;6276969;20;2487811;-52
2023/12/11 04:00:01;;;;;;;;;70.50;51.50;;;;;0.01;100.00;99302.13;6272780;20;2870183;-50
2023/12/11 04:02:31;;;;;;;;;79.33;63.33;;;;;0.04;100.00;99309.94;6274813;20;2865000;-51
2023/12/11 04:05:01;;;;;;;;;77.00;52.33;;;;;0.13;100.00;99304.47;6312976;20;2883606;-51
2023/12/11 04:07:30;;;;;;;;;65.50;45.50;;;;;0.51;100.00;99314.91;6313016;20;2871113;-48
2023/12/11 04:10:00;;;;;;;;;65.00;50.33;;;;;0.29;100.00;99325.16;6279023;20;2877514;-50
2023/12/11 04:12:29;;;;;;;;;64.50;49.00;;;;;0.28;100.00;99334.84;6311508;20;2868041;-52
2023/12/11 04:14:58;;;;;;;;;58.50;45.00;;;;;0.16;100.00;99343.09;6280748;20;2867957;-51
2023/12/11 04:17:27;;;;;;;;;60.00;46.00;;;;;0.74;100.00;99349.50;6278473;20;2495048;-52
2023/12/11 04:19:57;;;;;;;;;67.00;52.00;;;;;0.72;100.00;99339.88;6274414;20;2495078;-52
2023/12/11 04:22:25;;;;;;;;;64.00;49.50;;;;;0.50;100.00;99329.91;6276824;20;2496189;-51
2023/12/11 04:24:53;;;;;;;;;70.00;49.50;;;;;0.13;100.00;99324.69;6277169;20;2491989;-49
2023/12/11 04:27:22;;;;;;;;;68.50;48.50;;;;;0.18;100.00;99336.00;6281063;20;2872719;-48
2023/12/11 04:29:52;;;;;;;;;70.00;52.00;;;;;0.08;100.00;99343.28;6281123;20;2885799;-49
2023/12/11 04:32:21;;;;;;;;;62.50;49.00;;;;;0.21;100.00;99331.53;6313765;20;2874265;-53
2023/12/11 04:34:50;;;;;;;;;65.00;47.50;;;;;0.13;100.00;99341.41;6282447;20;2871104;-53
2023/12/11 04:37:18;;;;;;;;;53.00;44.00;;;;;0.04;100.00;99341.63;6279556;20;2495078;-50
2023/12/11 04:39:47;;;;;;;;;58.00;46.00;;;;;0.18;100.00;99331.56;6282708;20;2844045;-48
2023/12/11 04:42:16;;;;;;;;;64.50;48.50;;;;;0.33;100.00;99321.53;6278775;20;2860701;-51
2023/12/11 04:44:45;;;;;;;;;70.00;51.00;;;;;0.42;100.00;99316.91;6281628;20;2878468;-53
2023/12/11 04:47:14;;;;;;;;;65.50;51.00;;;;;0.31;100.00;99329.50;6281320;20;2850430;-54
2023/12/11 04:49:43;;;;;;;;;67.00;53.50;;;;;0.23;100.00;99320.91;6278036;20;2865914;-51
2023/12/11 04:52:11;;;;;;;;;73.50;53.50;;;;;0.09;100.00;99308.06;6276539;20;2467937;-52
2023/12/11 04:54:41;;;;;;;;;76.67;50.67;;;;;-0.05;100.00;99320.75;6278326;20;2892031;-49
2023/12/11 04:57:11;;;;;;;;;71.50;49.50;;;;;0.21;100.00;99317.44;6311986;20;2869062;-50
2023/12/11 04:59:39;;;;;;;;;66.50;51.00;;;;;0.53;100.00;99319.25;6276587;20;2498304;-49
2023/12/11 05:02:11;;;;;;;;;65.00;46.00;;;;;0.49;100.00;99325.50;6278311;20;2874416;-50
2023/12/11 05:04:40;;;;;;;;;64.00;47.00;;;;;0.40;100.00;99313.44;6280361;20;2881566;-52
2023/12/11 05:07:09;;;;;;;;;62.50;49.00;;;;;-0.03;100.00;99313.63;6280532;20;2864873;-52
2023/12/11 05:09:39;;;;;;;;;57.00;45.00;;;;;0.17;100.00;99308.72;6279719;20;2877441;-51
2023/12/11 05:12:09;;;;;;;;;67.00;50.00;;;;;0.20;100.00;99305.16;6311595;20;2875249;-54
2023/12/11 05:14:37;;;;;;;;;61.00;46.50;;;;;-0.03;100.00;99300.44;6311695;20;2857573;-50
2023/12/11 05:17:07;;;;;;;;;68.50;49.00;;;;;-0.01;100.00;99298.63;6276930;20;2871154;-52
2023/12/11 05:19:35;;;;;;;;;60.50;45.50;;;;;0.11;100.00;99295.69;6272483;20;2860831;-49
2023/12/11 05:22:05;;;;;;;;;63.33;43.00;;;;;0.07;100.00;99307.22;6279191;20;3633711;-51
2023/12/11 05:24:34;;;;;;;;;63.00;46.50;;;;;0.23;100.00;99291.88;6310653;20;2856693;-51
2023/12/11 05:27:04;;;;;;;;;63.00;44.33;;;;;-0.04;100.00;99289.03;6278688;20;3642044;-53
2023/12/11 05:29:33;;;;;;;;;59.50;46.50;;;;;0.03;100.00;99294.13;6308710;20;2853453;-51
2023/12/11 05:32:02;;;;;;;;;63.50;46.00;;;;;-0.12;100.00;99293.63;6278510;20;2862819;-51
2023/12/11 05:34:32;;;;;;;;;60.33;46.00;;;;;0.31;100.00;99291.66;6276918;20;3625326;-51
2023/12/11 05:37:02;;;;;;;;;50.67;41.00;;;;;0.56;100.00;99308.59;6311159;20;2874360;-49
2023/12/11 05:39:32;;;;;;;;;60.33;43.00;;;;;0.32;100.00;99301.34;6310142;20;3644034;-49
2023/12/11 05:42:01;;;;;;;;;71.00;51.50;;;;;0.60;100.00;99298.81;6310806;20;2874228;-51
2023/12/11 05:44:31;;;;;;;;;71.33;51.67;;;;;0.39;100.00;99298.47;6280240;20;2884651;-50
2023/12/11 05:47:01;;;;;;;;;52.67;42.33;;;;;0.38;100.00;99299.38;6309288;20;2872248;-51
2023/12/11 05:49:30;;;;;;;;;57.00;41.00;;;;;0.26;100.00;99293.56;6309300;20;3641937;-52
2023/12/11 05:51:59;;;;;;;;;46.00;41.50;;;;;0.26;100.00;99280.34;6310915;20;2857588;-52
2023/12/11 05:54:28;;;;;;;;;63.00;45.00;;;;;0.35;100.00;99272.22;6282066;20;2765957;-50
2023/12/11 05:56:57;;;;;;;;;58.50;45.00;;;;;0.49;100.00;99272.69;6309044;20;2860957;-50
2023/12/11 05:59:27;;;;;;;;;62.67;45.00;;;;;0.21;100.00;99254.97;6274309;20;2875434;-47
2023/12/11 06:01:56;;;;;;;;;60.00;46.00;;;;;0.22;100.00;99272.53;6309118;20;2848327;-52
2023/12/11 06:04:26;;;;;;;;;64.00;45.67;;;;;0.17;100.00;99278.84;6279096;20;2888041;-50
2023/12/11 06:06:56;;;;;;;;;72.00;50.67;;;;;0.50;100.00;99282.38;6308027;20;2887814;-52
2023/12/11 06:09:25;;;;;;;;;75.00;50.33;;;;;0.25;100.00;99276.00;6310201;20;2892001;-49
2023/12/11 06:11:54;;;;;;;;;64.00;49.00;;;;;0.49;100.00;99290.31;6311070;20;2863852;-49
2023/12/11 06:14:24;;;;;;;;;76.33;55.33;;;;;0.09;100.00;99291.38;6279487;20;2892182;-50
2023/12/11 06:16:54;;;;;;;;;73.67;53.33;;;;;0.36;100.00;99285.34;6310549;20;2872166;-50
2023/12/11 06:19:23;;;;;;;;;76.00;53.00;;;;;0.28;100.00;99281.19;6310507;20;2880671;-49
2023/12/11 06:21:51;;;;;;;;;67.50;50.50;;;;;0.22;100.00;99267.25;6275054;20;2491930;-54
2023/12/11 06:24:20;;;;;;;;;68.50;49.00;;;;;0.10;100.00;99264.06;6278318;20;2876402;-54
2023/12/11 06:26:49;;;;;;;;;64.50;51.00;;;;;0.25;100.00;99249.59;6273717;20;2862890;-51
2023/12/11 06:29:18;;;;;;;;;74.50;50.00;;;;;0.44;100.00;99241.13;6274807;20;2880462;-49
2023/12/11 06:31:48;;;;;;;;;63.00;46.33;;;;;0.18;100.00;99225.97;6278312;20;2872222;-49
2023/12/11 06:34:16;;;;;;;;;70.50;50.00;;;;;0.12;100.00;99217.38;6308313;20;2868020;-49
2023/12/11 06:36:46;;;;;;;;;51.67;37.67;;;;;0.52;100.00;99254.13;6278705;20;2881621;-50
2023/12/11 06:39:17;;;;;;;;;56.67;41.33;;;;;0.94;100.00;99289.94;6308506;20;2887931;-52
2023/12/11 06:41:46;;;;;;;;;66.00;49.00;;;;;0.59;100.00;99297.94;6309135;20;2866993;-52
2023/12/11 06:44:16;;;;;;;;;68.67;45.67;;;;;0.62;100.00;99303.13;6277645;20;2883763;-51
2023/12/11 06:46:45;;;;;;;;;54.50;44.50;;;;;0.35;100.00;99291.56;6310854;20;2854488;-52
2023/12/11 06:49:15;;;;;;;;;59.00;41.33;;;;;0.74;100.00;99306.34;6275651;20;3633619;-48
2023/12/11 06:51:44;;;;;;;;;60.00;42.50;;;;;0.37;100.00;99315.25;6309560;20;2886764;-52
2023/12/11 06:54:13;;;;;;;;;53.50;42.50;;;;;0.81;100.00;99329.91;6278178;20;2855559;-49
2023/12/11 06:56:42;;;;;;;;;47.50;36.00;;;;;0.94;100.00;99326.94;6279025;20;2868080;-49
2023/12/11 06:59:11;;;;;;;;;42.50;36.00;;;;;0.58;100.00;99327.94;6276929;20;2871233;-53
2023/12/11 07:01:41;;;;;;;;;54.00;44.00;;;;;0.58;100.00;99312.06;6276378;20;2853471;-49
2023/12/11 07:04:11;;;;;;;;;57.67;44.67;;;;;0.52;100.00;99288.44;6306769;20;2857668;-50
2023/12/11 07:06:40;;;;;;;;;51.00;40.50;;;;;0.53;100.00;99292.84;6307678;20;2870170;-51
2023/12/11 07:09:10;;;;;;;;;57.00;45.00;;;;;0.19;100.00;99282.31;6276854;20;2860887;-52
2023/12/11 07:11:38;;;;;;;;;60.00;48.50;;;;;0.43;100.00;99280.78;6275150;20;2506520;-50
2023/12/11 07:14:08;;;;;;;;;55.50;45.50;;;;;0.36;100.00;99272.16;6279763;20;2843168;-50
2023/12/11 07:16:36;;;;;;;;;48.00;41.50;;;;;0.61;100.00;99280.28;6273009;20;2500318;-51
2023/12/11 07:19:06;;;;;;;;;53.00;43.67;;;;;0.61;100.00;99288.22;6277377;20;2872303;-51
2023/12/11 07:21:36;;;;;;;;;48.67;36.67;;;;;0.70;100.00;99287.09;6310281;20;3634712;-50
2023/12/11 07:24:07;;;;;;;;;62.00;46.00;;;;;0.70;100.00;99283.56;6306029;20;2879577;-52
2023/12/11 07:26:36;;;;;;;;;67.00;55.00;;;;;0.84;100.00;99276.13;6308287;20;2873226;-53
2023/12/11 07:29:07;;;;;;;;;61.50;45.50;;;;;0.73;100.00;99270.28;6276876;20;2863847;-51
2023/12/11 07:31:36;;;;;;;;;59.50;46.00;;;;;0.86;100.00;99251.38;6273920;20;2848321;-50
2023/12/11 07:34:07;;;;;;;;;72.00;55.00;;;;;0.55;100.00;99255.81;6275785;20;2879499;-55
2023/12/11 07:36:37;;;;;;;;;86.33;61.67;;;;;0.97;100.00;99256.34;6308326;20;3663899;-51
2023/12/11 07:39:07;;;;;;;;;60.67;44.33;;;;;1.27;100.00;99259.84;6279933;20;3627368;-52
2023/12/11 07:41:35;;;;;;;;;64.50;46.50;;;;;1.31;100.00;99263.25;6312690;20;2474712;-51
2023/12/11 07:44:04;;;;;;;;;71.00;55.00;;;;;1.22;100.00;99271.50;6280336;20;2869030;-51
2023/12/11 07:46:33;;;;;;;;;49.50;41.50;;;;;0.92;100.00;99276.75;6283326;20;2853082;-53
2023/12/11 07:49:01;;;;;;;;;69.50;51.00;;;;;1.61;100.00;99268.53;6278200;20;2495078;-49
2023/12/11 07:51:31;;;;;;;;;82.33;61.00;;;;;1.49;100.00;99260.03;6282209;20;3650338;-52
2023/12/11 07:54:00;;;;;;;;;56.00;44.50;;;;;1.67;100.00;99233.94;6312849;20;2858725;-50
2023/12/11 07:56:30;;;;;;;;;63.33;45.33;;;;;1.38;100.00;99225.13;6283679;20;2870163;-52
2023/12/11 07:58:59;;;;;;;;;71.33;49.33;;;;;1.85;100.00;99251.84;6309422;20;2883578;-52
2023/12/11 08:01:32;;;;;;;;;63.50;45.00;;;;;1.69;100.00;99266.50;6311781;20;2879410;-52
2023/12/11 08:04:01;;;;;;;;;70.33;52.33;;;;;1.24;100.00;99285.53;6280696;20;3628382;-54
2023/12/11 08:06:33;;;;;;;;;67.00;52.00;;;;;1.12;100.00;99280.59;6312142;20;3642988;-53
2023/12/11 08:09:03;;;;;;;;;68.00;52.33;;;;;1.27;100.00;99270.44;6309488;20;2865929;-52
2023/12/11 08:11:31;;;;;;;;;63.00;45.00;;;;;0.92;100.00;99266.19;6313667;20;2872150;-52
2023/12/11 08:14:01;;;;;;;;;73.33;54.67;;;;;1.30;100.00;99275.63;6283064;20;3644082;-51
2023/12/11 08:16:31;;;;;;;;;69.67;48.00;;;;;1.14;100.00;99255.84;6310349;20;2880714;-53
2023/12/11 08:19:01;;;;;;;;;109.33;82.00;;;;;1.48;100.00;99247.75;6313429;20;3701449;-53
2023/12/11 08:21:31;;;;;;;;;63.67;49.33;;;;;1.28;100.00;99237.78;6281274;20;2873184;-52
2023/12/11 08:24:02;;;;;;;;;100.25;76.75;;;;;1.53;100.00;99218.50;6312515;20;3694025;-49
2023/12/11 08:26:32;;;;;;;;;84.00;56.00;;;;;1.38;100.00;99224.28;6313011;20;3670031;-48
2023/12/11 08:29:01;;;;;;;;;83.33;60.33;;;;;1.57;100.00;99221.91;6313089;20;3655627;-50
2023/12/11 08:31:32;;;;;;;;;84.00;62.33;;;;;1.81;100.00;99213.16;6314484;20;3657542;-50
2023/12/11 08:34:02;;;;;;;;;224.75;178.75;;;;;1.34;100.00;99212.91;6313425;20;4469362;-52
2023/12/11 08:36:32;;;;;;;;;96.33;65.00;;;;;1.93;100.00;99210.09;6277943;20;3657529;-54
2023/12/11 08:39:02;;;;;;;;;88.67;66.67;;;;;1.57;100.00;99198.97;6313093;20;3648506;-55
2023/12/11 08:41:33;;;;;;;;;78.33;47.67;;;;;1.80;100.00;99200.84;6312425;20;3642968;-52
2023/12/11 08:44:03;;;;;;;;;78.67;58.00;;;;;1.31;100.00;99198.00;6313023;20;3637743;-51
2023/12/11 08:46:34;;;;;;;;;74.67;54.00;;;;;1.48;100.00;99202.78;6310595;20;2890948;-50
2023/12/11 08:49:04;;;;;;;;;78.33;61.33;;;;;1.36;100.00;99194.38;6311679;20;2878899;-52
2023/12/11 08:51:34;;;;;;;;;75.67;57.33;;;;;1.33;100.00;99165.38;6314461;20;2879559;-52
2023/12/11 08:54:04;;;;;;;;;77.00;56.33;;;;;1.67;100.00;99163.34;6311864;20;3642947;-53
2023/12/11 08:56:33;;;;;;;;;91.33;68.00;;;;;1.61;100.00;99141.53;6314352;20;3655548;-53
2023/12/11 08:59:03;;;;;;;;;79.33;59.67;;;;;1.30;100.00;99137.25;6313795;20;3635794;-54
2023/12/11 09:01:34;;;;;;;;;77.00;57.00;;;;;2.00;100.00;99154.28;6313764;20;3654516;-54
2023/12/11 09:04:04;;;;;;;;;79.67;60.67;;;;;2.35;100.00;99169.78;6311721;20;2882609;-55
2023/12/11 09:06:34;;;;;;;;;74.33;55.67;;;;;2.22;100.00;99172.94;6313296;20;3638794;-55
2023/12/11 09:09:04;;;;;;;;;72.67;57.33;;;;;1.67;100.00;99162.47;6311290;20;2894205;-53
2023/12/11 09:11:33;;;;;;;;;70.33;55.00;;;;;2.34;100.00;99175.13;6313085;20;2878652;-50
2023/12/11 09:14:03;;;;;;;;;80.00;59.00;;;;;2.37;100.00;99177.66;6312865;20;3636737;-51
2023/12/11 09:16:33;;;;;;;;;92.00;68.00;;;;;2.07;100.00;99179.63;6311733;20;3648188;-53
2023/12/11 09:19:03;;;;;;;;;72.00;56.00;;;;;2.60;100.00;99193.56;6312976;20;3631514;-53
2023/12/11 09:21:32;;;;;;;;;74.00;56.33;;;;;2.50;100.00;99196.63;6311517;20;3635682;-53
2023/12/11 09:24:03;;;;;;;;;85.67;62.00;;;;;2.80;100.00;99192.84;6312405;20;3647111;-54
2023/12/11 09:26:34;;;;;;;;;69.33;53.67;;;;;1.95;100.00;99184.44;6313792;20;3635651;-54
2023/12/11 09:29:03;;;;;;;;;64.00;47.50;;;;;1.81;100.00;99170.81;6309337;20;2862783;-53
2023/12/11 09:31:33;;;;;;;;;76.67;56.33;;;;;2.17;100.00;99170.44;6282172;20;2897307;-55
2023/12/11 09:34:02;;;;;;;;;75.67;58.00;;;;;2.22;100.00;99171.16;6312564;20;2882587;-54
2023/12/11 09:36:32;;;;;;;;;71.33;56.33;;;;;1.90;100.00;99161.69;6311272;20;2872204;-52
2023/12/11 09:39:04;;;;;;;;;73.67;56.33;;;;;2.03;100.00;99151.50;6309211;20;2877582;-51
2023/12/11 09:41:35;;;;;;;;;75.67;50.67;;;;;2.23;100.00;99145.53;6313247;20;3634137;-54
2023/12/11 09:44:06;;;;;;;;;72.33;54.00;;;;;1.85;100.00;99147.75;6310781;20;2884761;-51
2023/12/11 09:46:55;;;;;;;;;80.00;59.00;;;;;1.97;100.00;99172.03;6309109;20;3632543;-54
2023/12/11 09:49:25;;;;;;;;;81.33;61.00;;;;;1.87;100.00;99165.31;6307091;20;3633594;-52
2023/12/11 09:51:58;;;;;;;;;66.67;52.67;;;;;1.75;100.00;99165.72;6313311;20;3636039;-52
2023/12/11 09:54:27;;;;;;;;;72.67;55.67;;;;;2.17;100.00;99162.50;6310342;20;2892235;-51
2023/12/11 09:56:58;;;;;;;;;74.67;52.33;;;;;2.09;100.00;99154.81;6312732;20;3655536;-51
2023/12/11 09:59:30;;;;;;;;;64.50;49.50;;;;;1.97;100.00;99148.19;6308895;20;2872192;-50
2023/12/11 10:02:00;;;;;;;;;72.67;53.00;;;;;1.90;100.00;99151.97;6277101;20;2895106;-51
2023/12/11 10:04:29;;;;;;;;;70.00;50.50;;;;;2.60;100.00;99158.25;6311850;20;2878435;-52
2023/12/11 10:06:58;;;;;;;;;80.33;59.33;;;;;2.94;100.00;99154.31;6279751;20;3634707;-49
2023/12/11 10:09:33;;;;;;;;;74.00;52.67;;;;;2.75;100.00;99144.44;6312340;20;3648313;-52
2023/12/11 10:12:04;;;;;;;;;69.67;48.33;;;;;2.76;100.00;99140.84;6311339;20;3637740;-53
2023/12/11 10:14:37;;;;;;;;;78.33;60.00;;;;;2.74;100.00;99137.41;6311643;20;3624305;-53
2023/12/11 10:17:17;;;;;;;;;78.00;56.00;;;;;2.81;100.00;99136.22;6311868;20;3641973;-52
2023/12/11 10:19:48;;;;;;;;;74.33;57.33;;;;;2.61;100.00;99138.81;6309093;20;2879742;-51
2023/12/11 10:22:30;;;;;;;;;82.67;60.33;;;;;3.27;100.00;99142.38;6312504;20;3653426;-50
2023/12/11 10:25:00;;;;;;;;;73.67;54.67;;;;;3.01;100.00;99139.91;6275079;20;3646154;-54
2023/12/11 10:27:30;;;;;;;;;78.00;60.33;;;;;3.01;100.00;99139.91;6312566;20;2881770;-51
2023/12/11 10:30:12;;;;;;;;;68.50;55.50;;;;;2.47;100.00;99133.16;6311076;20;2882603;-52
2023/12/11 10:32:41;;;;;;;;;80.67;61.67;;;;;2.81;100.00;99128.28;6280756;20;3623196;-50
2023/12/11 10:35:23;;;;;;;;;73.33;55.67;;;;;3.51;100.00;99131.69;6312766;20;2880636;-49
2023/12/11 10:38:03;;;;;;;;;78.67;56.33;;;;;3.26;100.00;99130.03;6309772;20;3637764;-49
2023/12/11 10:40:41;;;;;;;;;73.00;55.33;;;;;2.80;100.00;99121.25;6309344;20;3637743;-53
2023/12/11 10:43:11;;;;;;;;;79.00;59.67;;;;;2.61;100.00;99126.41;6312688;20;3643080;-52
2023/12/11 10:45:42;;;;;;;;;81.00;59.00;;;;;2.72;100.00;99123.34;6307443;20;3650367;-52
2023/12/11 10:48:11;;;;;;;;;76.00;61.00;;;;;3.07;100.00;99131.69;6314076;20;2864882;-50
2023/12/11 10:50:42;;;;;;;;;79.67;58.00;;;;;3.47;100.00;99116.81;6279848;20;3637790;-51
2023/12/11 10:53:13;;;;;;;;;84.33;63.33;;;;;3.32;100.00;99107.72;6311177;20;3641961;-49
2023/12/11 10:55:44;;;;;;;;;89.00;61.00;;;;;3.02;100.00;99109.81;6310119;20;3658069;-49
2023/12/11 10:58:13;;;;;;;;;71.50;55.50;;;;;3.29;100.00;99108.69;6275791;20;2866943;-55
2023/12/11 11:00:45;;;;;;;;;70.33;53.33;;;;;3.18;100.00;99100.28;6276321;20;3638792;-51
2023/12/11 11:03:17;;;;;;;;;77.67;60.00;;;;;3.29;100.00;99099.84;6311029;20;3641918;-52
2023/12/11 11:05:50;;;;;;;;;73.00;56.00;;;;;3.74;100.00;99094.41;6308621;20;3631519;-50
2023/12/11 11:08:52;;;;;;;;;72.33;58.00;;;;;3.27;100.00;99089.31;6308599;20;3622939;-52
2023/12/11 11:11:31;;;;;;;;;80.33;60.00;;;;;3.67;100.00;99086.78;6312075;20;3651314;-54
2023/12/11 11:14:31;;;;;;;;;74.00;58.00;;;;;4.10;100.00;99085.72;6316611;20;3624228;-54